This is the latest recevied weather packets stored in our database for station/object AE5HO. If no packets are shown the sender has not sent any weather packets the latest 10 day(s).
| Time | Temp. | Humidity | Pressure | Rain* | Wind** | Luminosity | Snow |
|---|---|---|---|---|---|---|---|
| 1777336082 | 32.22° C | 53% | 1007.5 hPa | 0 mm | - | 12 W/m² | - |
| 1777335778 | 32.78° C | 50% | 1007.5 hPa | 0 mm | - | 15 W/m² | - |
| 1777335475 | 33.33° C | 46% | 1007.7 hPa | 0 mm | - | 17 W/m² | - |
| 1777335173 | 34.44° C | 44% | 1007.8 hPa | 0 mm | - | 18 W/m² | - |
| 1777334870 | 35° C | 42% | 1007.8 hPa | 0 mm | - | 21 W/m² | - |
| 1777334568 | 36.11° C | 39% | 1007.7 hPa | 0 mm | - | 33 W/m² | - |
| 1777334265 | 36.67° C | 38% | 1007.8 hPa | 0 mm | - | 61 W/m² | - |
| 1777333964 | 36.67° C | 36% | 1007.6 hPa | 0 mm | - | 73 W/m² | - |
| 1777333661 | 36.67° C | 38% | 1007.7 hPa | 0 mm | - | 84 W/m² | - |
| 1777333358 | 36.67° C | 37% | 1007.6 hPa | 0 mm | - | 97 W/m² | - |
| 1777333056 | 36.67° C | 37% | 1007.7 hPa | 0 mm | - | 91 W/m² | - |
| 1777332754 | 36.67° C | 38% | 1007.7 hPa | 0 mm | - | 86 W/m² | - |
| 1777332450 | 36.11° C | 39% | 1007.8 hPa | 0 mm | - | 70 W/m² | - |
| 1777332147 | 36.11° C | 39% | 1007.8 hPa | 0 mm | - | 42 W/m² | - |
| 1777331844 | 36.11° C | 39% | 1007.7 hPa | 0 mm | - | 42 W/m² | - |
| 1777331541 | 35° C | 39% | 1007.8 hPa | 0 mm | - | 44 W/m² | - |
| 1777331239 | 35° C | 40% | 1007.8 hPa | 0 mm | - | 46 W/m² | - |
| 1777330936 | 35° C | 40% | 1007.8 hPa | 0 mm | - | 60 W/m² | - |
| 1777330632 | 35° C | 41% | 1007.7 hPa | 0 mm | - | 84 W/m² | - |
| 1777330330 | 35.56° C | 41% | 1007.6 hPa | 0 mm | - | 43 W/m² | - |
| 1777330027 | 35.56° C | 41% | 1007.6 hPa | 0 mm | - | 43 W/m² | - |
| 1777329727 | 35° C | 40% | 1007.3 hPa | 0 mm | - | 44 W/m² | - |
| 1777329425 | 35° C | 39% | 1007.5 hPa | 0 mm | - | 79 W/m² | - |
| 1777329122 | 35° C | 40% | 1007.1 hPa | 0 mm | - | 104 W/m² | - |
| 1777328819 | 35° C | 40% | 1007.3 hPa | 0 mm | - | 43 W/m² | - |
* Rain latest hour (hover to see other rain measurements)
** Current wind speed in m/s (hover to see current wind gust speed)